Time;durP1;ratioP1;P1;durP2;ratioP2;P2;SDS_P1;SDS_P2;PMS_P1;PMS_P2;Temp;Humidity;BMP_temperature;BMP_pressure;BME280_temperature;BME280_humidity;BME280_pressure;Samples;Min_cycle;Max_cycle;Signal;HPM_P1;HPM_P2
2022/04/24 00:00:02;;;;;;;0.90;0.63;;;9.40;99.90;;;;;;5064657;28;20064;-89
2022/04/24 00:02:28;;;;;;;0.93;0.93;;;9.40;99.90;;;;;;5080859;28;20017;-88
2022/04/24 00:04:54;;;;;;;3.50;0.90;;;9.40;99.90;;;;;;5082380;28;20032;-89
2022/04/24 00:07:20;;;;;;;4.72;0.90;;;9.40;99.90;;;;;;5078396;28;20021;-89
2022/04/24 00:09:46;;;;;;;1.13;0.73;;;9.40;99.90;;;;;;5078958;28;20508;-88
2022/04/24 00:12:18;;;;;;;3.90;0.90;;;9.40;99.90;;;;;;5087791;28;20025;-88
2022/04/24 00:14:45;;;;;;;1.10;0.77;;;9.40;99.90;;;;;;5074822;28;20031;-90
2022/04/24 00:17:12;;;;;;;1.95;1.00;;;9.40;99.90;;;;;;5063482;28;20112;-87
2022/04/24 00:19:38;;;;;;;2.10;1.13;;;9.50;99.90;;;;;;5086347;28;20056;-88
2022/04/24 00:22:04;;;;;;;1.33;0.82;;;9.50;99.90;;;;;;5081081;28;20493;-88
2022/04/24 00:24:32;;;;;;;3.22;1.30;;;9.50;99.90;;;;;;5075134;28;20025;-89
2022/04/24 00:26:58;;;;;;;2.67;1.40;;;9.50;99.90;;;;;;5083978;28;20032;-88
2022/04/24 00:29:24;;;;;;;2.30;1.00;;;9.50;99.90;;;;;;5071635;28;20029;-88
2022/04/24 00:31:50;;;;;;;3.22;0.90;;;9.50;99.90;;;;;;5063287;28;20024;-87
2022/04/24 00:34:15;;;;;;;1.52;1.05;;;9.50;99.90;;;;;;5079712;28;20505;-88
2022/04/24 00:36:41;;;;;;;3.72;2.13;;;9.50;99.90;;;;;;5080585;28;20647;-89
2022/04/24 00:39:07;;;;;;;3.17;1.35;;;9.60;99.90;;;;;;5077952;28;20087;-87
2022/04/24 00:41:33;;;;;;;1.20;1.10;;;9.50;99.90;;;;;;5078623;28;20028;-89
2022/04/24 00:43:58;;;;;;;1.23;1.10;;;9.50;99.90;;;;;;5081947;28;20025;-87
2022/04/24 00:46:46;;;;;;;2.22;1.17;;;9.60;99.90;;;;;;5083927;28;20028;-89
2022/04/24 00:49:13;;;;;;;1.40;1.10;;;9.60;99.90;;;;;;5067404;28;20025;-88
2022/04/24 00:51:40;;;;;;;1.00;0.65;;;9.60;99.90;;;;;;5073238;28;20089;-87
2022/04/24 00:54:10;;;;;;;0.70;0.70;;;9.60;99.90;;;;;;5070322;28;20028;-89
2022/04/24 00:56:40;;;;;;;0.82;0.70;;;9.60;99.90;;;;;;5072004;28;20075;-89
2022/04/24 00:59:08;;;;;;;1.48;0.70;;;9.60;99.90;;;;;;5080952;28;20078;-88
2022/04/24 01:01:35;;;;;;;0.70;0.70;;;9.60;99.90;;;;;;5061988;28;20559;-89
2022/04/24 01:04:04;;;;;;;2.28;0.70;;;9.60;99.90;;;;;;5078062;28;20082;-88
2022/04/24 01:06:36;;;;;;;0.68;0.63;;;9.60;99.90;;;;;;5082094;28;20082;-88
2022/04/24 01:09:11;;;;;;;0.60;0.60;;;9.60;99.90;;;;;;5068671;28;20494;-87
2022/04/24 01:11:37;;;;;;;1.52;0.85;;;9.60;99.90;;;;;;5087708;28;20099;-87
2022/04/24 01:14:05;;;;;;;0.70;0.57;;;9.60;99.90;;;;;;5078579;28;20017;-87
2022/04/24 01:16:30;;;;;;;1.38;0.95;;;9.70;99.90;;;;;;5071125;28;20024;-89
2022/04/24 01:18:57;;;;;;;0.50;0.40;;;9.70;99.90;;;;;;5073269;28;20568;-87
2022/04/24 01:21:23;;;;;;;2.72;0.57;;;9.60;99.90;;;;;;5079004;28;20089;-87
2022/04/24 01:23:49;;;;;;;0.22;0.22;;;9.60;99.90;;;;;;5087570;28;20489;-86
2022/04/24 01:26:15;;;;;;;0.65;0.57;;;9.60;99.90;;;;;;5086776;28;20028;-87
2022/04/24 01:28:40;;;;;;;0.20;0.20;;;9.70;99.90;;;;;;5083269;28;20024;-87
2022/04/24 01:31:06;;;;;;;4.30;0.30;;;9.60;99.90;;;;;;5076983;28;20025;-85
2022/04/24 01:33:32;;;;;;;1.02;0.52;;;9.70;99.90;;;;;;5071270;28;20020;-86
2022/04/24 01:35:58;;;;;;;0.52;0.52;;;9.70;99.90;;;;;;5062981;28;20374;-86
2022/04/24 01:38:23;;;;;;;0.60;0.30;;;9.70;99.90;;;;;;5079743;28;20032;-87
2022/04/24 01:40:49;;;;;;;0.20;0.20;;;9.70;99.90;;;;;;5084035;28;20498;-87
2022/04/24 01:43:18;;;;;;;0.40;0.40;;;9.70;99.90;;;;;;5082779;28;20509;-86
2022/04/24 01:45:44;;;;;;;0.20;0.20;;;9.70;99.90;;;;;;5088002;28;20032;-88
2022/04/24 01:48:10;;;;;;;0.50;0.50;;;9.70;99.90;;;;;;5085407;28;20069;-87
2022/04/24 01:50:36;;;;;;;0.30;0.30;;;9.80;99.90;;;;;;5060047;28;20032;-88
2022/04/24 01:53:02;;;;;;;0.52;0.30;;;9.80;99.90;;;;;;5075131;28;20065;-88
2022/04/24 01:55:27;;;;;;;0.50;0.50;;;9.80;99.90;;;;;;5079682;28;20459;-87
2022/04/24 01:57:53;;;;;;;0.40;0.40;;;9.80;99.90;;;;;;5078281;28;20024;-87
2022/04/24 02:00:19;;;;;;;0.40;0.40;;;9.80;99.90;;;;;;5076773;28;20033;-89
2022/04/24 02:02:46;;;;;;;0.85;0.50;;;9.80;99.90;;;;;;5080076;28;20036;-90
2022/04/24 02:05:12;;;;;;;2.83;0.50;;;9.80;99.90;;;;;;5084383;28;20035;-89
2022/04/24 02:07:38;;;;;;;3.13;0.65;;;9.80;99.90;;;;;;5062478;28;20127;-87
2022/04/24 02:10:04;;;;;;;0.60;0.60;;;9.80;99.90;;;;;;5071508;28;20104;-89
2022/04/24 02:12:30;;;;;;;0.63;0.60;;;9.80;99.90;;;;;;5069327;28;20056;-88
2022/04/24 02:14:56;;;;;;;0.57;0.57;;;9.80;99.90;;;;;;5074106;28;20052;-89
2022/04/24 02:17:22;;;;;;;0.60;0.60;;;9.80;99.90;;;;;;5078354;28;20020;-88
2022/04/24 02:19:48;;;;;;;0.50;0.50;;;9.80;99.90;;;;;;5083841;28;20509;-89
2022/04/24 02:22:14;;;;;;;0.50;0.50;;;9.90;99.90;;;;;;5063171;28;20104;-89
2022/04/24 02:24:40;;;;;;;0.43;0.43;;;9.90;99.90;;;;;;5078380;28;20497;-89
2022/04/24 02:27:06;;;;;;;0.55;0.55;;;9.80;99.90;;;;;;5085852;28;20020;-88
2022/04/24 02:29:33;;;;;;;1.70;0.50;;;9.90;99.90;;;;;;5072421;28;20044;-88
2022/04/24 02:31:59;;;;;;;0.30;0.30;;;9.90;99.90;;;;;;5077269;28;20021;-88
2022/04/24 02:34:26;;;;;;;0.73;0.52;;;9.90;99.90;;;;;;5074574;28;20032;-89
2022/04/24 02:36:52;;;;;;;0.50;0.50;;;9.90;99.90;;;;;;5079777;28;20028;-86
2022/04/24 02:39:18;;;;;;;0.40;0.40;;;9.90;99.90;;;;;;5076097;28;20099;-88
2022/04/24 02:41:44;;;;;;;2.40;0.60;;;9.90;99.90;;;;;;5082838;28;20052;-88
2022/04/24 02:44:10;;;;;;;0.40;0.40;;;9.90;99.90;;;;;;5084965;28;20497;-88
2022/04/24 02:46:35;;;;;;;0.50;0.50;;;10.00;99.90;;;;;;5076706;28;20563;-89
2022/04/24 02:49:01;;;;;;;1.20;0.50;;;10.00;99.90;;;;;;5074614;28;20119;-88
2022/04/24 02:51:27;;;;;;;1.73;0.47;;;10.00;99.90;;;;;;5078484;28;20077;-89
2022/04/24 02:53:52;;;;;;;0.38;0.38;;;10.00;99.90;;;;;;5073868;28;20413;-90
2022/04/24 02:56:18;;;;;;;2.78;0.45;;;9.90;99.90;;;;;;5078551;28;20094;-88
2022/04/24 02:58:44;;;;;;;0.30;0.30;;;10.00;99.90;;;;;;5064450;28;20035;-88
2022/04/24 03:01:11;;;;;;;0.35;0.35;;;9.90;99.90;;;;;;5066003;28;20108;-91
2022/04/24 03:03:38;;;;;;;0.40;0.40;;;9.90;99.90;;;;;;5076328;28;20490;-90
2022/04/24 03:06:04;;;;;;;0.50;0.50;;;10.00;99.90;;;;;;5085615;28;20513;-88
2022/04/24 03:08:31;;;;;;;0.40;0.40;;;10.00;99.90;;;;;;5066009;28;20031;-89
2022/04/24 03:10:56;;;;;;;1.75;0.73;;;10.00;99.90;;;;;;5083058;28;20103;-91
2022/04/24 03:13:22;;;;;;;2.47;0.80;;;10.00;99.90;;;;;;5080025;28;20574;-87
2022/04/24 03:15:48;;;;;;;1.50;0.80;;;10.00;99.90;;;;;;5077010;28;20028;-89
2022/04/24 03:18:13;;;;;;;0.90;0.90;;;10.00;99.90;;;;;;5067238;28;20497;-90
2022/04/24 03:20:39;;;;;;;3.35;1.00;;;10.00;99.90;;;;;;5083660;28;20032;-87
2022/04/24 03:23:05;;;;;;;1.48;1.15;;;10.10;99.90;;;;;;5082062;28;20053;-87
2022/04/24 03:25:31;;;;;;;1.98;1.40;;;10.10;99.90;;;;;;5089007;28;20580;-88
2022/04/24 03:27:57;;;;;;;1.60;1.40;;;10.10;99.90;;;;;;5083858;28;20031;-88
2022/04/24 03:30:22;;;;;;;1.95;1.67;;;10.10;99.90;;;;;;5077221;28;20397;-89
2022/04/24 03:32:48;;;;;;;4.25;2.38;;;10.20;99.90;;;;;;5079919;28;20512;-89
2022/04/24 03:35:14;;;;;;;4.30;2.70;;;10.20;99.90;;;;;;5082769;28;20607;-89
2022/04/24 03:37:41;;;;;;;4.13;3.03;;;10.20;99.90;;;;;;5089273;28;20033;-89
2022/04/24 03:40:08;;;;;;;5.97;4.82;;;10.30;99.90;;;;;;5084146;28;20051;-87
2022/04/24 03:42:35;;;;;;;9.63;5.22;;;10.30;99.90;;;;;;5083709;28;20031;-87
2022/04/24 03:45:01;;;;;;;10.40;6.15;;;10.30;99.90;;;;;;5090996;28;20127;-88
2022/04/24 03:47:27;;;;;;;12.32;6.03;;;10.40;99.90;;;;;;5073756;28;20029;-87
2022/04/24 03:49:54;;;;;;;12.10;7.68;;;10.40;99.90;;;;;;5068643;28;20027;-87
2022/04/24 03:52:20;;;;;;;19.48;8.70;;;10.40;99.90;;;;;;5080943;28;20029;-89
2022/04/24 03:54:45;;;;;;;13.20;8.02;;;10.50;99.90;;;;;;5080940;28;20024;-88
2022/04/24 03:57:12;;;;;;;13.85;7.70;;;10.50;99.90;;;;;;5078542;28;20539;-88
2022/04/24 03:59:38;;;;;;;14.73;9.25;;;10.50;99.90;;;;;;5081878;28;20497;-88
2022/04/24 04:02:04;;;;;;;18.73;9.77;;;10.60;99.90;;;;;;5083982;28;20055;-87
2022/04/24 04:04:30;;;;;;;17.10;10.65;;;10.60;99.90;;;;;;5067510;28;20031;-86
2022/04/24 04:06:55;;;;;;;18.23;11.13;;;10.60;99.90;;;;;;5073391;28;20529;-87
2022/04/24 04:09:22;;;;;;;19.02;11.75;;;10.70;99.90;;;;;;5066130;28;20020;-88
2022/04/24 04:11:48;;;;;;;25.77;13.88;;;10.70;99.90;;;;;;5067233;28;20044;-87
2022/04/24 04:14:14;;;;;;;22.00;14.07;;;10.80;99.90;;;;;;5074210;28;20067;-86
2022/04/24 04:16:40;;;;;;;35.80;16.08;;;10.80;99.90;;;;;;5079854;28;20504;-88
2022/04/24 04:19:06;;;;;;;28.65;16.20;;;10.80;99.90;;;;;;5078715;28;20028;-87
2022/04/24 04:21:31;;;;;;;33.30;17.02;;;10.90;99.90;;;;;;5074509;28;20024;-87
2022/04/24 04:23:57;;;;;;;33.30;19.52;;;10.90;99.90;;;;;;5071120;28;20028;-87
2022/04/24 04:26:23;;;;;;;29.25;19.60;;;11.00;99.90;;;;;;5061020;28;20479;-86
2022/04/24 04:28:50;;;;;;;37.55;21.73;;;11.00;99.90;;;;;;5075108;28;20474;-87
2022/04/24 04:31:17;;;;;;;39.20;19.80;;;11.00;99.90;;;;;;5076986;28;20052;-87
2022/04/24 04:33:43;;;;;;;39.10;21.25;;;11.10;99.90;;;;;;5072597;28;20047;-87
2022/04/24 04:36:09;;;;;;;37.35;20.92;;;11.10;99.90;;;;;;5068956;28;20523;-87
2022/04/24 04:38:35;;;;;;;39.22;22.40;;;11.10;99.90;;;;;;5054799;28;20032;-87
2022/04/24 04:41:01;;;;;;;35.40;20.35;;;11.10;99.90;;;;;;5086186;28;20027;-86
2022/04/24 04:43:27;;;;;;;36.95;20.90;;;11.10;99.90;;;;;;5069886;28;20037;-86
2022/04/24 04:45:53;;;;;;;35.13;21.38;;;11.10;99.90;;;;;;5075145;28;20020;-85
2022/04/24 04:48:18;;;;;;;42.95;22.45;;;11.20;99.90;;;;;;5066755;28;20031;-86
2022/04/24 04:50:44;;;;;;;38.83;21.20;;;11.20;99.90;;;;;;5068468;28;20393;-87
2022/04/24 04:53:10;;;;;;;37.17;20.52;;;11.20;99.90;;;;;;5077230;28;20417;-88
2022/04/24 04:55:36;;;;;;;36.63;21.77;;;11.20;99.90;;;;;;5083796;28;20048;-88
2022/04/24 04:58:02;;;;;;;35.70;20.92;;;11.10;99.90;;;;;;5071888;28;20036;-87
2022/04/24 05:00:28;;;;;;;36.60;20.58;;;11.20;99.90;;;;;;5076748;28;20505;-88
2022/04/24 05:02:54;;;;;;;36.55;19.77;;;11.20;99.90;;;;;;5062383;28;20032;-87
2022/04/24 05:05:20;;;;;;;34.28;18.10;;;11.20;99.90;;;;;;5062243;28;20103;-86
2022/04/24 05:07:46;;;;;;;33.28;18.20;;;11.20;99.90;;;;;;5078332;28;20505;-87
2022/04/24 05:10:12;;;;;;;34.25;18.85;;;11.10;99.90;;;;;;5082275;28;20023;-87
2022/04/24 05:12:37;;;;;;;32.75;18.60;;;11.20;99.90;;;;;;5060061;28;20024;-86
2022/04/24 05:15:05;;;;;;;32.90;19.35;;;11.20;99.90;;;;;;5072142;28;20082;-86
2022/04/24 05:17:32;;;;;;;29.75;17.50;;;11.20;99.90;;;;;;5078180;28;20035;-86
2022/04/24 05:19:58;;;;;;;32.17;18.13;;;11.20;99.90;;;;;;5063372;28;20025;-85
2022/04/24 05:22:24;;;;;;;31.95;17.67;;;11.20;99.90;;;;;;5064144;28;20032;-85
2022/04/24 05:24:50;;;;;;;43.13;18.67;;;11.20;99.90;;;;;;5061380;28;20107;-86
2022/04/24 05:27:16;;;;;;;36.90;18.48;;;11.20;99.90;;;;;;5066894;28;20041;-84
2022/04/24 05:29:41;;;;;;;32.78;20.88;;;11.20;99.90;;;;;;5084609;28;20016;-85
2022/04/24 05:32:08;;;;;;;37.22;18.13;;;11.20;99.90;;;;;;5063560;28;20017;-86
2022/04/24 05:34:33;;;;;;;29.00;18.63;;;11.20;99.90;;;;;;5070907;28;20025;-85
2022/04/24 05:36:59;;;;;;;31.05;18.58;;;11.20;99.90;;;;;;5075318;28;20501;-86
2022/04/24 05:39:25;;;;;;;42.83;20.55;;;11.20;99.90;;;;;;5077216;28;20186;-85
2022/04/24 05:41:50;;;;;;;32.58;18.50;;;11.20;99.90;;;;;;5080137;28;20123;-84
2022/04/24 05:44:16;;;;;;;34.33;18.83;;;11.20;99.90;;;;;;5083098;28;20074;-85
2022/04/24 05:46:42;;;;;;;34.67;19.13;;;11.20;99.90;;;;;;5088125;28;20054;-85
2022/04/24 05:49:07;;;;;;;39.65;19.25;;;11.10;99.90;;;;;;5072870;28;20029;-85
2022/04/24 05:51:33;;;;;;;32.95;19.50;;;11.10;99.90;;;;;;5077138;28;20070;-86
2022/04/24 05:54:00;;;;;;;38.10;19.02;;;11.20;99.90;;;;;;5074279;28;20028;-85
2022/04/24 05:56:25;;;;;;;40.35;19.67;;;11.20;99.90;;;;;;5075861;28;20060;-85
2022/04/24 05:58:51;;;;;;;39.90;18.00;;;11.20;99.90;;;;;;5083379;28;20028;-85
2022/04/24 06:01:17;;;;;;;39.65;18.40;;;11.20;99.90;;;;;;5082798;28;20097;-85
2022/04/24 06:03:43;;;;;;;37.53;20.88;;;11.20;99.90;;;;;;5081058;28;20157;-84
2022/04/24 06:06:10;;;;;;;38.97;18.77;;;11.20;99.90;;;;;;5071905;28;20031;-84
2022/04/24 06:08:35;;;;;;;39.92;18.73;;;11.20;99.90;;;;;;5065330;28;20061;-84
2022/04/24 06:11:01;;;;;;;35.65;20.85;;;11.10;99.90;;;;;;5084443;28;20029;-84
2022/04/24 06:13:27;;;;;;;31.15;19.05;;;11.10;99.90;;;;;;5082141;28;20032;-83
2022/04/24 06:15:57;;;;;;;34.33;19.88;;;11.20;99.90;;;;;;5069092;28;20033;-84
2022/04/24 06:18:24;;;;;;;37.55;20.77;;;11.10;99.90;;;;;;5069753;28;20028;-84
2022/04/24 06:20:50;;;;;;;34.80;20.25;;;11.10;99.90;;;;;;5060311;28;20035;-84
2022/04/24 06:23:15;;;;;;;38.22;20.27;;;11.10;99.90;;;;;;5077712;28;20028;-83
2022/04/24 06:25:42;;;;;;;39.33;20.42;;;11.10;99.90;;;;;;5089963;28;20470;-83
2022/04/24 06:28:08;;;;;;;38.85;19.70;;;11.10;99.90;;;;;;5087801;28;20111;-84
2022/04/24 06:30:40;;;;;;;41.47;20.05;;;11.10;99.90;;;;;;5074956;28;20120;-84
2022/04/24 06:33:10;;;;;;;36.33;20.10;;;11.10;99.90;;;;;;5061634;28;20507;-84
2022/04/24 06:35:36;;;;;;;35.60;20.95;;;11.10;99.90;;;;;;5082114;28;20171;-83
2022/04/24 06:38:03;;;;;;;43.47;21.48;;;11.20;99.90;;;;;;5088218;28;20031;-84
2022/04/24 06:40:28;;;;;;;33.75;20.75;;;11.20;99.90;;;;;;5068025;28;20036;-85
2022/04/24 06:42:58;;;;;;;38.75;21.23;;;11.20;99.90;;;;;;5079449;28;20025;-84
2022/04/24 06:45:30;;;;;;;38.53;19.77;;;11.20;99.90;;;;;;5081648;28;20020;-83
2022/04/24 06:47:58;;;;;;;37.50;19.92;;;11.20;99.90;;;;;;5071668;28;20073;-84
2022/04/24 06:50:25;;;;;;;39.22;19.58;;;11.30;99.90;;;;;;5084943;28;20074;-83
2022/04/24 06:53:02;;;;;;;34.88;19.65;;;11.20;99.90;;;;;;5088648;28;20486;-84
2022/04/24 06:55:30;;;;;;;40.53;19.42;;;11.20;99.90;;;;;;5089135;28;20040;-84
2022/04/24 06:57:56;;;;;;;34.83;20.08;;;11.20;99.90;;;;;;5083749;28;20029;-84
2022/04/24 07:00:24;;;;;;;35.47;18.67;;;11.20;99.90;;;;;;5077226;28;20034;-84
2022/04/24 07:02:50;;;;;;;33.03;17.80;;;11.30;99.90;;;;;;5078719;28;20498;-84
2022/04/24 07:05:16;;;;;;;34.65;19.30;;;11.30;99.90;;;;;;5092612;28;20066;-84
2022/04/24 07:07:42;;;;;;;41.38;18.88;;;11.30;99.90;;;;;;5077041;28;20044;-84
2022/04/24 07:10:09;;;;;;;41.67;19.75;;;11.30;99.90;;;;;;5083038;28;20809;-84
2022/04/24 07:12:52;;;;;;;34.45;18.10;;;11.30;99.90;;;;;;5079794;28;20016;-84
2022/04/24 07:15:19;;;;;;;31.85;18.70;;;11.30;99.90;;;;;;5080597;28;20012;-83
2022/04/24 07:17:45;;;;;;;32.15;18.20;;;11.30;99.90;;;;;;5087179;28;20023;-84
2022/04/24 07:20:13;;;;;;;30.33;16.92;;;11.40;99.90;;;;;;5077601;28;20066;-84
2022/04/24 07:22:48;;;;;;;38.35;18.63;;;11.30;99.90;;;;;;5083160;28;20150;-84
2022/04/24 07:25:22;;;;;;;33.85;18.33;;;11.30;99.90;;;;;;5085643;28;20031;-84
2022/04/24 07:27:48;;;;;;;36.45;19.20;;;11.30;99.90;;;;;;5081379;28;20084;-83
2022/04/24 07:30:16;;;;;;;39.17;19.35;;;11.30;99.90;;;;;;5079194;28;20036;-84
2022/04/24 07:32:45;;;;;;;39.28;19.45;;;11.30;99.90;;;;;;5067047;28;20016;-84
2022/04/24 07:35:21;;;;;;;36.75;18.92;;;11.30;99.90;;;;;;5089712;28;20035;-85
2022/04/24 07:37:47;;;;;;;34.83;18.80;;;11.30;99.90;;;;;;5072132;28;20108;-85
2022/04/24 07:40:15;;;;;;;38.03;21.25;;;11.30;99.90;;;;;;5071778;28;20029;-85
2022/04/24 07:42:45;;;;;;;49.63;21.33;;;11.30;99.90;;;;;;5074366;28;20016;-85
2022/04/24 07:45:15;;;;;;;35.22;19.85;;;11.30;99.90;;;;;;5078132;28;20051;-83
2022/04/24 07:47:41;;;;;;;38.55;19.30;;;11.30;99.90;;;;;;5081536;28;20024;-86
2022/04/24 07:50:07;;;;;;;35.92;19.35;;;11.30;99.90;;;;;;5078964;28;20093;-84
2022/04/24 07:52:33;;;;;;;38.15;19.38;;;11.30;99.90;;;;;;5087790;28;20062;-84
2022/04/24 07:54:59;;;;;;;36.58;18.13;;;11.30;99.90;;;;;;5080739;28;20485;-86
2022/04/24 07:57:24;;;;;;;35.30;18.55;;;11.40;99.90;;;;;;5087293;28;20440;-84
2022/04/24 07:59:50;;;;;;;32.78;18.25;;;11.40;99.90;;;;;;5073515;28;20497;-84
2022/04/24 08:02:16;;;;;;;29.00;16.55;;;11.40;99.90;;;;;;5080582;28;20051;-85
2022/04/24 08:04:41;;;;;;;26.95;16.50;;;11.40;99.90;;;;;;5076019;28;20487;-86
2022/04/24 08:07:07;;;;;;;31.52;17.08;;;11.50;99.90;;;;;;5075374;28;20104;-85
2022/04/24 08:09:33;;;;;;;37.30;17.05;;;11.50;99.90;;;;;;5066996;28;20028;-85
2022/04/24 08:11:59;;;;;;;32.22;16.75;;;11.60;99.90;;;;;;5079192;28;20025;-85
2022/04/24 08:14:24;;;;;;;30.52;16.27;;;11.60;99.90;;;;;;5086121;28;20500;-84
2022/04/24 08:16:50;;;;;;;29.17;16.90;;;11.60;99.90;;;;;;5091791;28;20024;-84
2022/04/24 08:19:16;;;;;;;31.27;16.17;;;11.60;99.90;;;;;;5079498;28;20036;-84
2022/04/24 08:21:41;;;;;;;26.83;15.50;;;11.60;99.90;;;;;;5075141;28;20511;-85
2022/04/24 08:24:10;;;;;;;30.23;14.70;;;11.60;99.90;;;;;;5078462;28;20577;-85
2022/04/24 08:26:36;;;;;;;26.33;16.08;;;11.70;99.90;;;;;;5058841;28;20024;-87
2022/04/24 08:29:02;;;;;;;26.73;14.00;;;11.80;99.90;;;;;;5074213;28;20028;-85
2022/04/24 08:31:27;;;;;;;25.90;13.93;;;11.90;99.90;;;;;;5072060;28;20494;-86
2022/04/24 08:33:57;;;;;;;33.30;15.13;;;11.90;99.90;;;;;;5068068;28;20025;-85
2022/04/24 08:36:23;;;;;;;23.20;13.82;;;12.00;99.90;;;;;;5060042;28;20119;-90
2022/04/24 08:38:49;;;;;;;27.75;13.07;;;12.30;99.90;;;;;;5064204;28;20114;-88
2022/04/24 08:41:16;;;;;;;24.25;12.60;;;12.40;99.90;;;;;;5063728;28;20458;-87
2022/04/24 08:43:42;;;;;;;29.23;13.70;;;12.40;99.90;;;;;;5064759;28;20124;-87
2022/04/24 08:46:08;;;;;;;23.90;13.27;;;12.40;99.90;;;;;;5058382;28;20112;-85
2022/04/24 08:48:35;;;;;;;28.42;13.88;;;12.30;99.90;;;;;;5072700;28;20055;-89
2022/04/24 08:51:05;;;;;;;30.92;13.57;;;12.30;99.90;;;;;;5062242;28;20028;-77
2022/04/24 08:53:32;;;;;;;25.67;13.18;;;12.20;99.90;;;;;;5069117;28;20021;-76
2022/04/24 08:55:58;;;;;;;23.67;13.38;;;12.30;99.90;;;;;;5061069;28;20068;-77
2022/04/24 08:58:23;;;;;;;28.13;13.00;;;12.20;99.90;;;;;;5061755;28;20056;-78
2022/04/24 09:00:49;;;;;;;30.33;13.82;;;12.20;99.90;;;;;;5071542;28;20085;-77
2022/04/24 09:03:15;;;;;;;28.73;13.07;;;12.20;99.90;;;;;;5064111;28;20482;-77
2022/04/24 09:05:40;;;;;;;19.02;12.68;;;12.20;99.90;;;;;;5071524;28;20039;-77
2022/04/24 09:08:08;;;;;;;23.77;12.80;;;12.20;99.90;;;;;;5064505;28;20403;-79
2022/04/24 09:10:50;;;;;;;31.00;12.25;;;12.30;99.90;;;;;;5068233;28;20078;-78
2022/04/24 09:13:26;;;;;;;24.95;12.60;;;12.40;99.90;;;;;;5066362;28;20024;-78
2022/04/24 09:16:00;;;;;;;27.75;13.80;;;12.60;99.90;;;;;;5065978;28;20021;-79
2022/04/24 09:18:40;;;;;;;22.13;11.77;;;12.90;99.90;;;;;;5074925;28;20043;-80
2022/04/24 09:21:06;;;;;;;24.70;12.02;;;13.10;99.90;;;;;;5058930;28;20020;-78
2022/04/24 09:23:36;;;;;;;20.15;10.70;;;13.20;99.90;;;;;;5075065;28;20034;-81
2022/04/24 09:26:03;;;;;;;23.00;11.97;;;13.20;99.90;;;;;;5068681;28;20060;-78
2022/04/24 09:28:36;;;;;;;26.52;11.98;;;13.10;99.90;;;;;;5078164;28;20028;-78
2022/04/24 09:31:03;;;;;;;26.42;12.50;;;13.10;99.90;;;;;;5071291;28;20028;-80
2022/04/24 09:33:38;;;;;;;18.75;11.50;;;13.10;99.90;;;;;;5070535;28;20385;-79
2022/04/24 09:36:05;;;;;;;23.52;11.32;;;13.00;99.90;;;;;;5065903;28;20060;-80
2022/04/24 09:38:30;;;;;;;20.25;10.27;;;12.90;99.90;;;;;;5060313;28;20095;-78
2022/04/24 09:40:56;;;;;;;21.33;11.07;;;12.90;99.90;;;;;;5070835;28;20566;-78
2022/04/24 09:43:22;;;;;;;20.65;10.52;;;12.80;99.90;;;;;;5072656;28;20445;-78
2022/04/24 09:45:51;;;;;;;21.23;11.30;;;12.90;99.90;;;;;;5075561;28;20030;-77
2022/04/24 09:48:19;;;;;;;19.13;10.88;;;12.90;99.90;;;;;;5069745;28;20031;-77
2022/04/24 09:50:45;;;;;;;28.35;11.10;;;12.80;99.90;;;;;;5063084;28;20052;-78
2022/04/24 09:53:13;;;;;;;24.17;11.18;;;12.80;99.90;;;;;;5058940;28;20021;-77
2022/04/24 09:55:41;;;;;;;17.73;10.77;;;13.00;99.90;;;;;;5066984;28;20143;-77
2022/04/24 09:58:08;;;;;;;21.98;11.82;;;13.50;99.90;;;;;;5069415;28;20027;-77
2022/04/24 10:00:34;;;;;;;23.40;12.10;;;13.70;99.90;;;;;;5065368;28;20021;-77
2022/04/24 10:03:02;;;;;;;18.60;11.65;;;13.80;99.90;;;;;;5062608;28;20111;-77
2022/04/24 10:05:29;;;;;;;19.92;11.48;;;14.00;99.90;;;;;;5074709;28;20040;-77
2022/04/24 10:07:56;;;;;;;21.35;11.10;;;13.80;99.90;;;;;;5068671;28;20155;-77
2022/04/24 10:10:22;;;;;;;24.15;11.27;;;13.70;99.90;;;;;;5078330;28;20017;-77
2022/04/24 10:12:50;;;;;;;23.58;11.18;;;13.80;99.90;;;;;;5067739;28;20099;-77
2022/04/24 10:15:19;;;;;;;18.25;9.73;;;14.00;99.90;;;;;;5073467;28;20056;-77
2022/04/24 10:18:07;;;;;;;22.90;11.10;;;13.90;99.90;;;;;;5070815;28;20487;-86
2022/04/24 10:20:57;;;;;;;21.92;9.93;;;14.30;99.90;;;;;;5063545;28;20029;-80
2022/04/24 10:23:49;;;;;;;23.15;10.70;;;14.70;99.90;;;;;;5083632;28;20039;-80
2022/04/24 10:26:19;;;;;;;16.08;9.77;;;14.90;99.90;;;;;;5074205;28;20041;-83
2022/04/24 10:28:46;;;;;;;18.95;9.68;;;14.90;99.90;;;;;;5078701;28;20104;-78
2022/04/24 10:31:13;;;;;;;13.88;8.95;;;14.70;99.90;;;;;;5069209;28;20036;-83
2022/04/24 10:33:51;;;;;;;16.10;9.45;;;14.60;99.90;;;;;;5067706;28;20067;-82
2022/04/24 10:36:17;;;;;;;16.48;10.00;;;14.60;99.90;;;;;;5067304;28;20102;-81
2022/04/24 10:39:01;;;;;;;16.60;10.00;;;14.90;99.90;;;;;;5075512;28;20020;-82
2022/04/24 10:41:31;;;;;;;17.95;9.70;;;14.90;99.90;;;;;;5069547;28;20064;-84
2022/04/24 10:44:09;;;;;;;14.55;9.70;;;14.90;99.90;;;;;;5082013;28;20025;-81
2022/04/24 10:46:39;;;;;;;17.85;9.27;;;15.30;99.90;;;;;;5085143;28;20039;-87
2022/04/24 10:49:10;;;;;;;15.10;9.00;;;15.40;99.90;;;;;;5071254;28;20021;-88
2022/04/24 10:51:37;;;;;;;15.88;8.95;;;15.20;99.90;;;;;;5068030;28;20017;-89
2022/04/24 10:54:08;;;;;;;18.52;8.77;;;15.20;99.90;;;;;;5063470;28;20033;-82
2022/04/24 10:56:36;;;;;;;15.35;9.48;;;15.30;99.90;;;;;;5066218;28;20506;-87
2022/04/24 10:59:15;;;;;;;18.40;8.50;;;15.80;99.90;;;;;;5066404;28;20169;-87
2022/04/24 11:01:48;;;;;;;16.73;8.15;;;16.20;99.90;;;;;;5068109;28;20029;-86
2022/04/24 11:04:14;;;;;;;14.57;8.75;;;15.80;99.90;;;;;;5058627;28;20025;-82
2022/04/24 11:06:51;;;;;;;15.63;7.43;;;16.20;99.90;;;;;;5073255;28;20056;-82
2022/04/24 11:09:19;;;;;;;16.63;9.80;;;16.30;99.90;;;;;;5064920;28;20099;-79
2022/04/24 11:11:46;;;;;;;12.70;8.23;;;16.70;99.90;;;;;;5057915;28;20016;-80
2022/04/24 11:14:11;;;;;;;14.07;7.95;;;16.80;99.90;;;;;;5063580;28;20032;-80
2022/04/24 11:16:37;;;;;;;16.58;8.20;;;16.50;99.90;;;;;;5075352;28;20032;-80
2022/04/24 11:19:03;;;;;;;17.10;8.48;;;16.10;99.90;;;;;;5082660;28;20082;-80
2022/04/24 11:21:28;;;;;;;16.05;8.13;;;15.90;99.90;;;;;;5069316;28;20020;-80
2022/04/24 11:24:01;;;;;;;13.65;7.90;;;15.80;99.90;;;;;;5074338;28;20032;-80
2022/04/24 11:26:27;;;;;;;15.63;8.35;;;15.90;99.90;;;;;;5075194;28;20029;-80
2022/04/24 11:28:52;;;;;;;17.35;8.05;;;15.60;99.90;;;;;;5080074;28;20494;-80
2022/04/24 11:31:20;;;;;;;18.30;7.80;;;15.60;99.90;;;;;;5063571;28;20092;-80
2022/04/24 11:34:00;;;;;;;17.67;6.82;;;16.00;99.90;;;;;;5068986;28;20029;-80
2022/04/24 11:36:34;;;;;;;16.52;7.60;;;16.40;99.90;;;;;;5065955;28;20054;-80
2022/04/24 11:39:05;;;;;;;15.57;7.10;;;16.20;99.90;;;;;;5061147;28;20045;-80
2022/04/24 11:41:33;;;;;;;11.82;6.53;;;15.90;99.90;;;;;;5069287;28;20509;-80
2022/04/24 11:44:03;;;;;;;9.02;6.63;;;16.10;99.90;;;;;;5074057;28;20271;-80
2022/04/24 11:52:02;;;;;;;14.07;6.72;;;16.70;99.90;;;;;;5069021;28;20028;-80
2022/04/24 11:54:28;;;;;;;8.68;6.47;;;17.20;99.90;;;;;;5070433;28;20020;-80
2022/04/24 11:56:54;;;;;;;17.27;7.28;;;17.40;99.90;;;;;;5060910;28;20514;-79
2022/04/24 11:59:22;;;;;;;16.55;6.28;;;17.00;99.90;;;;;;5063199;28;20025;-79
2022/04/24 12:01:58;;;;;;;9.63;6.13;;;17.10;99.90;;;;;;5071885;28;20021;-79
2022/04/24 12:04:31;;;;;;;12.02;6.70;;;17.20;99.90;;;;;;5061634;28;20116;-80
2022/04/24 12:07:02;;;;;;;15.13;6.72;;;17.10;99.90;;;;;;5068549;28;20525;-79
2022/04/24 12:09:28;;;;;;;19.27;8.13;;;16.90;99.90;;;;;;5064758;28;20098;-82
2022/04/24 12:12:06;;;;;;;11.45;6.57;;;16.80;99.90;;;;;;5064346;28;20493;-83
2022/04/24 12:14:31;;;;;;;12.73;6.28;;;17.20;99.90;;;;;;5064161;28;20055;-83
2022/04/24 12:17:20;;;;;;;11.30;6.07;;;17.10;99.90;;;;;;5077372;28;20025;-84
2022/04/24 12:19:51;;;;;;;13.30;6.75;;;16.80;99.90;;;;;;5074170;28;20514;-83
2022/04/24 12:22:25;;;;;;;;;;;16.60;99.90;;;;;;5071898;28;20020;-84
2022/04/24 12:24:51;;;;;;;18.15;10.38;;;16.40;99.90;;;;;;5074068;28;19914;-84
2022/04/24 12:27:17;;;;;;;12.82;8.55;;;16.50;99.90;;;;;;5081203;28;20028;-82
2022/04/24 12:29:45;;;;;;;18.92;10.40;;;16.90;99.90;;;;;;5057478;28;20077;-84
2022/04/24 12:32:15;;;;;;;11.55;7.97;;;16.70;99.90;;;;;;5069855;28;20028;-84
2022/04/24 12:34:45;;;;;;;12.95;7.22;;;17.10;99.90;;;;;;5066453;28;20079;-84
2022/04/24 12:37:13;;;;;;;10.95;7.10;;;16.80;99.90;;;;;;5074694;28;20037;-84
2022/04/24 12:39:39;;;;;;;9.07;6.20;;;16.90;99.90;;;;;;5073334;28;20036;-85
2022/04/24 12:42:17;;;;;;;13.00;7.30;;;17.30;99.90;;;;;;5071452;28;20518;-78
2022/04/24 12:44:43;;;;;;;14.25;6.68;;;17.60;99.90;;;;;;5071358;28;20038;-79